Time;durP1;ratioP1;P1;durP2;ratioP2;P2;SDS_P1;SDS_P2;PMS_P1;PMS_P2;Temp;Humidity;BMP_temperature;BMP_pressure;BME280_temperature;BME280_humidity;BME280_pressure;Samples;Min_cycle;Max_cycle;Signal;HPM_P1;HPM_P2
2023/10/10 00:02:19;;;;;;;12.57;5.20;;;14.80;99.90;;;;;;4992802;28;20049;-89
2023/10/10 00:04:49;;;;;;;9.73;5.13;;;14.80;99.90;;;;;;4992509;28;20030;-90
2023/10/10 00:07:15;;;;;;;21.23;6.47;;;14.80;99.90;;;;;;4996908;28;20030;-89
2023/10/10 00:09:45;;;;;;;13.48;5.68;;;14.80;99.90;;;;;;4995564;28;20533;-88
2023/10/10 00:12:19;;;;;;;9.30;5.03;;;14.80;99.90;;;;;;4996824;28;20038;-88
2023/10/10 00:14:50;;;;;;;16.08;5.50;;;14.80;99.90;;;;;;5000374;28;20450;-85
2023/10/10 00:17:16;;;;;;;17.23;5.35;;;14.70;99.90;;;;;;4993234;28;20037;-89
2023/10/10 00:19:44;;;;;;;9.60;4.65;;;14.80;99.90;;;;;;5000209;28;20624;-88
2023/10/10 00:22:10;;;;;;;17.65;6.13;;;14.80;99.90;;;;;;4995522;28;20030;-90
2023/10/10 00:24:36;;;;;;;13.40;4.85;;;14.80;99.90;;;;;;4995612;28;20542;-88
2023/10/10 00:27:13;;;;;;;11.13;5.22;;;14.80;99.90;;;;;;4995234;28;20053;-90
2023/10/10 00:29:42;;;;;;;19.42;5.85;;;14.80;99.90;;;;;;4991335;28;20521;-87
2023/10/10 00:32:22;;;;;;;11.45;5.43;;;14.70;99.90;;;;;;4998353;28;20143;-88
2023/10/10 00:34:48;;;;;;;9.00;4.70;;;14.70;99.90;;;;;;5001417;28;20513;-89
2023/10/10 00:37:20;;;;;;;20.40;5.25;;;14.70;99.90;;;;;;5000964;28;20060;-91
2023/10/10 00:39:52;;;;;;;10.52;4.10;;;14.70;99.90;;;;;;4997414;28;20478;-90
2023/10/10 00:42:36;;;;;;;9.80;4.03;;;14.70;99.90;;;;;;4990934;28;20076;-88
2023/10/10 00:45:09;;;;;;;16.25;5.03;;;14.70;99.90;;;;;;4989881;28;20038;-88
2023/10/10 00:47:49;;;;;;;7.72;3.50;;;14.70;99.90;;;;;;4992043;28;20038;-85
2023/10/10 00:50:18;;;;;;;11.63;4.03;;;14.70;99.90;;;;;;4998084;28;20028;-88
2023/10/10 00:52:48;;;;;;;13.10;4.13;;;14.70;99.90;;;;;;4999531;28;20118;-88
2023/10/10 00:55:39;;;;;;;7.53;4.00;;;14.70;99.90;;;;;;4990573;28;20393;-89
2023/10/10 00:58:05;;;;;;;5.65;3.75;;;14.70;99.90;;;;;;4991661;28;20119;-88
2023/10/10 01:00:32;;;;;;;14.45;3.97;;;14.70;99.90;;;;;;4990924;28;20079;-89
2023/10/10 01:03:21;;;;;;;12.30;3.88;;;14.70;99.90;;;;;;4996170;28;20044;-90
2023/10/10 01:05:53;;;;;;;9.73;3.25;;;14.60;99.90;;;;;;5000529;28;20034;-92
2023/10/10 01:08:19;;;;;;;9.23;3.47;;;14.60;99.90;;;;;;4995166;28;20083;-88
2023/10/10 01:10:48;;;;;;;10.30;2.88;;;14.60;99.90;;;;;;4989820;28;20471;-89
2023/10/10 01:13:14;;;;;;;7.82;3.47;;;14.60;99.90;;;;;;4989649;28;20339;-90
2023/10/10 01:15:43;;;;;;;11.65;3.70;;;14.60;99.90;;;;;;4990684;28;20050;-88
2023/10/10 01:18:13;;;;;;;8.18;3.42;;;14.60;99.90;;;;;;4996129;28;20121;-89
2023/10/10 01:20:45;;;;;;;8.98;3.13;;;14.60;99.90;;;;;;4995186;28;20030;-88
2023/10/10 01:23:15;;;;;;;16.83;4.22;;;14.50;99.90;;;;;;4997827;28;20029;-89
2023/10/10 01:25:48;;;;;;;7.47;2.85;;;14.60;99.90;;;;;;4992139;28;20038;-89
2023/10/10 01:31:10;;;;;;;7.78;3.10;;;14.50;99.90;;;;;;4995398;28;20036;-87
2023/10/10 01:33:36;;;;;;;9.82;2.97;;;14.60;99.90;;;;;;4994037;28;20038;-86
2023/10/10 01:36:11;;;;;;;4.72;2.72;;;14.60;99.90;;;;;;4992005;28;20116;-91
2023/10/10 01:38:55;;;;;;;;;;;14.60;99.90;;;;;;4995083;28;20475;-88
2023/10/10 01:41:24;;;;;;;10.82;2.88;;;14.60;99.90;;;;;;4995110;28;19959;-88
2023/10/10 01:44:08;;;;;;;13.30;4.03;;;14.50;99.90;;;;;;4988590;28;20367;-88
2023/10/10 01:46:35;;;;;;;6.93;2.67;;;14.50;99.90;;;;;;4995487;28;20026;-88
2023/10/10 01:49:05;;;;;;;7.65;3.10;;;14.50;99.90;;;;;;4999460;28;20037;-88
2023/10/10 01:51:33;;;;;;;9.82;3.63;;;14.50;99.90;;;;;;4998264;28;20050;-87
2023/10/10 01:54:03;;;;;;;10.38;3.13;;;14.50;99.90;;;;;;4995009;28;20040;-90
2023/10/10 01:56:29;;;;;;;13.23;3.42;;;14.40;99.90;;;;;;4992229;28;20089;-88
2023/10/10 01:58:55;;;;;;;7.78;2.42;;;14.50;99.90;;;;;;4996184;28;20129;-88
2023/10/10 02:01:23;;;;;;;8.95;2.72;;;14.50;99.90;;;;;;5000877;28;20026;-88
2023/10/10 02:03:51;;;;;;;9.05;2.83;;;14.50;99.90;;;;;;5000244;28;20374;-88
2023/10/10 02:06:27;;;;;;;4.47;2.35;;;14.40;99.90;;;;;;4996364;28;20030;-90
2023/10/10 02:09:40;;;;;;;11.48;3.65;;;14.40;99.90;;;;;;4994862;28;20038;-88
2023/10/10 02:11:50;;;;;;;5.57;2.97;;;14.40;99.90;;;;;;5004156;28;20050;-88
2023/10/10 02:14:25;;;;;;;5.68;3.00;;;14.40;99.90;;;;;;4995692;28;20385;-88
2023/10/10 02:17:06;;;;;;;5.50;2.60;;;14.40;99.90;;;;;;4994675;28;20410;-88
2023/10/10 02:19:40;;;;;;;7.35;3.53;;;14.40;99.90;;;;;;4985621;28;20038;-88
2023/10/10 02:22:22;;;;;;;10.98;3.55;;;14.30;99.90;;;;;;4997917;28;20030;-91
2023/10/10 02:25:08;;;;;;;10.55;3.28;;;14.30;99.90;;;;;;4997049;28;20050;-87
2023/10/10 02:27:34;;;;;;;;;;;14.30;99.90;;;;;;4995763;28;20131;-88
2023/10/10 02:30:06;;;;;;;6.68;2.97;;;14.30;99.90;;;;;;4999607;28;20393;-89
2023/10/10 02:32:35;;;;;;;7.60;3.85;;;14.30;99.90;;;;;;4986778;28;20060;-88
2023/10/10 02:35:25;;;;;;;7.72;3.70;;;14.30;99.90;;;;;;4982413;28;20093;-88
2023/10/10 02:37:47;;;;;;;13.00;5.30;;;14.30;99.90;;;;;;4992182;28;20022;-88
2023/10/10 02:40:15;;;;;;;8.27;3.95;;;14.30;99.90;;;;;;4990638;28;20030;-89
2023/10/10 02:45:28;;;;;;;10.07;4.93;;;14.30;99.90;;;;;;4994341;28;20497;-87
2023/10/10 02:47:54;;;;;;;15.77;5.32;;;14.30;99.90;;;;;;4995859;28;20034;-87
2023/10/10 02:53:07;;;;;;;4.70;3.80;;;14.30;99.90;;;;;;4992873;28;20049;-88
2023/10/10 02:55:41;;;;;;;6.57;3.88;;;14.30;99.90;;;;;;4996444;28;20080;-91
2023/10/10 02:58:20;;;;;;;8.00;4.47;;;14.20;99.90;;;;;;4994826;28;20434;-88
2023/10/10 03:00:50;;;;;;;6.00;3.65;;;14.20;99.90;;;;;;4998830;28;20021;-89
2023/10/10 03:03:19;;;;;;;8.98;3.80;;;14.20;99.90;;;;;;4994924;28;20026;-87
2023/10/10 03:05:50;;;;;;;6.43;3.63;;;14.20;99.90;;;;;;4994450;28;20036;-88
2023/10/10 03:11:13;;;;;;;5.00;2.75;;;14.20;99.90;;;;;;4991113;28;20038;-88
2023/10/10 03:13:47;;;;;;;3.25;2.95;;;14.30;99.90;;;;;;4996989;28;20038;-88
2023/10/10 03:21:42;;;;;;;8.82;4.80;;;14.30;99.90;;;;;;4991206;28;20842;-89
2023/10/10 03:24:29;;;;;;;7.28;3.42;;;14.30;99.90;;;;;;4994204;28;20084;-88
2023/10/10 03:27:49;;;;;;;8.48;4.40;;;14.20;99.90;;;;;;4991883;28;20537;-91
2023/10/10 03:30:17;;;;;;;7.60;3.72;;;14.20;99.90;;;;;;4990768;28;20501;-88
2023/10/10 03:33:09;;;;;;;7.03;3.65;;;14.10;99.90;;;;;;4995950;28;20067;-89
2023/10/10 03:35:51;;;;;;;9.57;3.75;;;14.20;99.90;;;;;;4998442;28;20041;-89
2023/10/10 03:38:45;;;;;;;8.95;3.15;;;14.20;99.90;;;;;;4997328;28;20037;-89
2023/10/10 05:23:29;;;;;;;5.57;3.47;;;14.20;99.90;;;;;;4998102;28;20030;-88
2023/10/10 05:25:37;;;;;;;2.60;2.30;;;14.00;99.90;;;;;;5002876;28;20048;-88
2023/10/10 05:28:03;;;;;;;2.15;1.90;;;14.00;99.90;;;;;;4997965;28;20057;-88
2023/10/10 05:30:39;;;;;;;3.25;2.50;;;14.00;99.90;;;;;;4998982;28;20064;-88
2023/10/10 05:33:06;;;;;;;2.53;2.33;;;14.00;99.90;;;;;;4998119;28;20419;-88
2023/10/10 05:35:43;;;;;;;2.30;2.10;;;14.00;99.90;;;;;;4999714;28;20034;-90
2023/10/10 05:38:10;;;;;;;5.05;2.22;;;14.00;99.90;;;;;;4991264;28;20542;-90
2023/10/10 05:40:43;;;;;;;3.53;2.20;;;14.00;99.90;;;;;;4993932;28;20048;-87
2023/10/10 05:43:15;;;;;;;2.55;2.10;;;14.00;99.90;;;;;;4994224;28;20086;-91
2023/10/10 05:45:44;;;;;;;2.92;2.42;;;14.00;99.90;;;;;;4999064;28;20038;-87
2023/10/10 05:48:10;;;;;;;2.80;2.15;;;14.00;99.90;;;;;;4997226;28;20487;-87
2023/10/10 05:50:37;;;;;;;2.85;2.63;;;14.10;99.90;;;;;;4998674;28;20029;-89
2023/10/10 05:53:06;;;;;;;7.63;3.20;;;14.10;99.90;;;;;;5004471;28;20102;-88
2023/10/10 05:55:40;;;;;;;4.05;2.72;;;14.10;99.90;;;;;;4998358;28;20042;-88
2023/10/10 05:58:08;;;;;;;4.00;2.85;;;14.10;99.90;;;;;;4994537;28;20572;-88
2023/10/10 06:00:37;;;;;;;3.95;3.10;;;14.10;99.90;;;;;;4998431;28;20099;-89
2023/10/10 06:03:05;;;;;;;6.32;2.90;;;14.10;99.90;;;;;;4997736;28;20341;-88
2023/10/10 06:05:35;;;;;;;2.83;2.63;;;14.10;99.90;;;;;;4997827;28;20037;-88
2023/10/10 06:08:01;;;;;;;3.85;3.10;;;14.10;99.90;;;;;;5000972;28;20225;-88
2023/10/10 06:10:31;;;;;;;5.68;3.90;;;14.10;99.90;;;;;;4993206;28;20083;-90
2023/10/10 06:13:03;;;;;;;4.90;3.40;;;14.20;99.90;;;;;;4991733;28;20038;-93
2023/10/10 06:15:29;;;;;;;7.00;3.50;;;14.10;99.90;;;;;;4991421;28;20111;-92
2023/10/10 06:17:57;;;;;;;7.15;3.83;;;14.20;99.90;;;;;;4994090;28;20030;-89
2023/10/10 06:20:24;;;;;;;4.35;2.97;;;14.20;99.90;;;;;;4991212;28;20113;-88
2023/10/10 06:22:53;;;;;;;3.08;2.78;;;14.20;99.90;;;;;;4992885;28;20478;-90
2023/10/10 06:25:18;;;;;;;4.15;3.10;;;14.20;99.90;;;;;;4993173;28;20470;-90
2023/10/10 06:27:45;;;;;;;10.57;3.85;;;14.20;99.90;;;;;;4997704;28;20026;-90
2023/10/10 06:30:18;;;;;;;11.40;3.85;;;14.20;99.90;;;;;;4998704;28;20040;-89
2023/10/10 06:32:46;;;;;;;3.47;3.17;;;14.30;99.90;;;;;;4991540;28;20505;-88
2023/10/10 06:37:51;;;;;;;3.08;2.78;;;14.20;99.90;;;;;;4995114;28;20042;-89
2023/10/10 06:40:25;;;;;;;5.47;3.20;;;14.30;99.90;;;;;;5003563;28;20030;-93
2023/10/10 06:42:58;;;;;;;13.40;4.50;;;14.30;99.90;;;;;;4994626;28;20034;-90
2023/10/10 06:45:26;;;;;;;6.05;3.70;;;14.30;99.90;;;;;;5000268;28;20030;-89
2023/10/10 06:47:54;;;;;;;6.57;4.40;;;14.40;99.90;;;;;;5000642;28;20030;-88
2023/10/10 06:50:23;;;;;;;5.47;3.97;;;14.30;99.90;;;;;;4998873;28;20030;-90
2023/10/10 06:52:52;;;;;;;5.97;3.70;;;14.40;99.90;;;;;;4994404;28;20498;-89
2023/10/10 06:55:36;;;;;;;7.18;3.70;;;14.40;99.90;;;;;;4998669;28;20041;-89
2023/10/10 06:58:05;;;;;;;4.13;3.65;;;14.50;99.90;;;;;;4993081;28;20163;-89
2023/10/10 07:00:44;;;;;;;4.47;2.90;;;14.50;99.90;;;;;;4996003;28;20034;-89
2023/10/10 07:03:11;;;;;;;7.45;4.60;;;14.50;99.90;;;;;;4999246;28;20318;-89
2023/10/10 07:05:39;;;;;;;3.38;3.05;;;14.60;99.90;;;;;;4992060;28;20439;-89
2023/10/10 07:08:19;;;;;;;3.40;3.10;;;14.60;99.90;;;;;;4999906;28;20033;-89
2023/10/10 07:10:45;;;;;;;3.17;2.83;;;14.60;99.90;;;;;;4991548;28;20474;-91
2023/10/10 07:13:14;;;;;;;5.35;3.22;;;14.60;99.90;;;;;;5002825;28;20062;-89
2023/10/10 07:15:42;;;;;;;4.32;2.90;;;14.60;99.90;;;;;;4995461;28;20075;-91
2023/10/10 07:18:09;;;;;;;2.78;2.58;;;14.60;99.90;;;;;;5000103;28;20064;-90
2023/10/10 07:21:04;;;;;;;3.90;2.90;;;14.70;99.90;;;;;;4997953;28;20035;-89
2023/10/10 07:23:37;;;;;;;4.03;3.10;;;14.70;99.90;;;;;;4994951;28;20034;-89
2023/10/10 07:26:07;;;;;;;2.97;2.70;;;14.70;99.90;;;;;;5000046;28;20048;-92
2023/10/10 07:28:47;;;;;;;3.85;3.20;;;14.70;99.90;;;;;;5002058;28;20030;-88
2023/10/10 07:31:17;;;;;;;9.45;3.60;;;14.70;99.90;;;;;;4994935;28;20053;-88
2023/10/10 07:33:55;;;;;;;3.75;3.30;;;14.70;99.90;;;;;;4996927;28;20174;-91
2023/10/10 07:36:25;;;;;;;7.22;3.65;;;14.80;99.90;;;;;;4999629;28;20030;-88
2023/10/10 07:41:45;;;;;;;4.85;3.40;;;14.80;99.90;;;;;;4977849;28;20544;-88
2023/10/10 07:44:12;;;;;;;7.22;3.88;;;14.80;99.90;;;;;;5001046;28;20057;-90
2023/10/10 07:46:38;;;;;;;3.25;2.95;;;14.80;99.90;;;;;;5001840;28;20086;-88
2023/10/10 07:49:03;;;;;;;9.85;5.00;;;14.90;99.90;;;;;;5003234;28;20022;-89
2023/10/10 07:51:29;;;;;;;11.75;5.28;;;14.90;99.90;;;;;;4995857;28;20046;-90
2023/10/10 07:54:10;;;;;;;9.20;4.38;;;14.90;99.90;;;;;;4998790;28;20083;-89
2023/10/10 07:56:44;;;;;;;6.13;3.88;;;15.00;99.90;;;;;;5006026;28;20014;-90
2023/10/10 07:59:13;;;;;;;4.70;3.70;;;15.00;99.90;;;;;;4997622;28;20083;-89
2023/10/10 08:01:42;;;;;;;7.88;3.92;;;15.00;99.90;;;;;;4993627;28;20037;-90
2023/10/10 08:04:13;;;;;;;9.45;4.05;;;15.00;99.90;;;;;;5004582;28;20390;-91
2023/10/10 08:06:39;;;;;;;7.20;3.90;;;15.00;99.90;;;;;;4995729;28;20026;-90
2023/10/10 08:11:43;;;;;;;8.00;4.47;;;15.10;99.90;;;;;;4997534;28;20068;-90
2023/10/10 08:14:12;;;;;;;8.48;3.85;;;15.10;99.90;;;;;;4997632;28;20109;-89
2023/10/10 08:16:43;;;;;;;10.23;3.90;;;15.20;99.90;;;;;;5002456;28;20498;-93
2023/10/10 08:19:08;;;;;;;9.70;3.45;;;15.20;99.90;;;;;;5000473;28;20105;-89
2023/10/10 08:21:39;;;;;;;7.97;3.28;;;15.20;99.90;;;;;;5000945;28;20113;-91
2023/10/10 08:24:07;;;;;;;5.75;3.22;;;15.20;99.90;;;;;;5003537;28;20053;-89
2023/10/10 08:26:39;;;;;;;10.00;3.25;;;15.30;99.90;;;;;;4998879;28;20022;-89
2023/10/10 08:29:08;;;;;;;7.93;3.97;;;15.30;99.90;;;;;;5002093;28;20053;-90
2023/10/10 08:31:38;;;;;;;9.43;3.00;;;15.30;99.90;;;;;;4996332;28;20268;-90
2023/10/10 08:34:05;;;;;;;6.22;3.53;;;15.40;99.90;;;;;;4999510;28;20040;-92
2023/10/10 08:36:33;;;;;;;8.45;3.50;;;15.50;99.90;;;;;;4998774;28;20057;-91
2023/10/10 08:39:35;;;;;;;6.70;3.13;;;15.40;99.90;;;;;;5002832;28;20393;-90
2023/10/10 08:41:53;;;;;;;5.82;2.88;;;15.40;99.90;;;;;;5001744;28;20057;-89
2023/10/10 08:44:20;;;;;;;5.78;3.10;;;15.50;99.90;;;;;;4997963;28;20036;-95
2023/10/10 08:46:48;;;;;;;6.45;3.28;;;15.50;99.90;;;;;;5003325;28;20091;-90
2023/10/10 08:49:15;;;;;;;11.77;3.47;;;15.50;99.90;;;;;;4999232;28;20440;-89
2023/10/10 08:51:45;;;;;;;7.15;3.45;;;15.60;99.90;;;;;;4993797;28;20133;-90
2023/10/10 08:54:13;;;;;;;7.78;3.20;;;15.60;99.90;;;;;;4997063;28;20058;-90
2023/10/10 08:56:53;;;;;;;6.68;3.35;;;15.50;99.90;;;;;;4997288;28;20060;-90
2023/10/10 08:59:18;;;;;;;6.90;3.83;;;15.60;99.90;;;;;;5000146;28;20036;-91
2023/10/10 09:01:45;;;;;;;7.20;4.30;;;15.70;99.90;;;;;;4997085;28;20030;-90
2023/10/10 09:04:19;;;;;;;5.75;3.55;;;15.70;99.90;;;;;;5001374;28;20030;-90
2023/10/10 09:09:34;;;;;;;9.00;3.90;;;15.70;99.90;;;;;;4995031;28;20106;-90
2023/10/10 09:12:04;;;;;;;6.38;3.75;;;15.80;99.90;;;;;;4994465;28;20030;-92
2023/10/10 09:14:40;;;;;;;6.75;3.38;;;15.80;99.90;;;;;;4995921;28;20371;-90
2023/10/10 09:17:11;;;;;;;13.85;4.57;;;15.80;99.90;;;;;;4994475;28;20341;-91
2023/10/10 09:19:43;;;;;;;12.65;4.55;;;15.90;99.90;;;;;;4999321;28;20546;-88
2023/10/10 09:22:25;;;;;;;17.50;4.97;;;15.90;99.90;;;;;;4998402;28;20049;-90
2023/10/10 09:24:55;;;;;;;9.68;3.80;;;16.00;99.90;;;;;;4989031;28;20029;-90
2023/10/10 09:27:22;;;;;;;7.95;4.07;;;16.10;99.90;;;;;;5002252;28;20030;-93
2023/10/10 09:29:54;;;;;;;6.82;4.18;;;16.10;99.90;;;;;;4992231;28;20038;-90
2023/10/10 09:32:34;;;;;;;13.73;4.40;;;16.20;99.90;;;;;;4996478;28;20406;-89
2023/10/10 09:35:00;;;;;;;9.85;4.25;;;16.20;99.90;;;;;;5000471;28;20049;-92
2023/10/10 09:37:35;;;;;;;16.88;5.72;;;16.20;99.90;;;;;;4996305;28;20030;-89
2023/10/10 09:40:05;;;;;;;10.60;4.93;;;16.20;99.90;;;;;;4995423;28;20026;-89
2023/10/10 09:42:52;;;;;;;7.65;4.25;;;16.30;99.90;;;;;;4995407;28;20062;-91
2023/10/10 09:48:33;;;;;;;9.38;4.00;;;16.30;99.90;;;;;;5002493;28;20133;-91
2023/10/10 09:51:16;;;;;;;12.15;3.80;;;16.30;99.90;;;;;;4989458;28;20113;-93
2023/10/10 09:53:46;;;;;;;12.27;4.90;;;16.40;99.90;;;;;;4999549;28;20250;-91
2023/10/10 09:56:15;;;;;;;12.05;5.03;;;16.40;99.90;;;;;;4996857;28;20037;-94
2023/10/10 09:58:44;;;;;;;11.88;4.55;;;16.40;99.90;;;;;;5002362;28;20053;-91
2023/10/10 10:01:21;;;;;;;10.25;4.50;;;16.50;99.90;;;;;;4993805;28;20081;-90
2023/10/10 10:03:56;;;;;;;6.78;3.83;;;16.50;99.90;;;;;;4997437;28;20487;-90
2023/10/10 10:06:35;;;;;;;7.35;4.07;;;16.60;99.90;;;;;;4997212;28;20127;-90
2023/10/10 10:09:45;;;;;;;11.65;4.35;;;16.50;99.90;;;;;;4998665;28;20030;-90
2023/10/10 10:12:54;;;;;;;6.50;4.28;;;16.60;99.90;;;;;;4996651;28;20052;-91
2023/10/10 10:15:56;;;;;;;9.75;5.03;;;16.60;99.90;;;;;;4937837;28;20551;-90
2023/10/10 10:18:29;;;;;;;7.53;4.15;;;16.70;99.90;;;;;;4962171;28;20046;-89
2023/10/10 10:21:12;;;;;;;8.00;3.63;;;16.70;99.90;;;;;;4998597;28;20030;-91
2023/10/10 10:23:45;;;;;;;10.63;4.72;;;16.70;99.90;;;;;;4999120;28;20030;-93
2023/10/10 10:26:31;;;;;;;10.73;4.45;;;16.80;99.90;;;;;;5001848;28;20034;-88
2023/10/10 10:28:57;;;;;;;;;;;16.80;99.90;;;;;;4996868;28;20098;-88
2023/10/10 10:31:37;;;;;;;5.90;3.63;;;16.80;99.90;;;;;;4996209;28;19921;-89
2023/10/10 10:34:31;;;;;;;7.90;3.63;;;16.80;99.90;;;;;;4997812;28;20060;-92
2023/10/10 10:37:09;;;;;;;10.57;4.70;;;16.80;99.90;;;;;;4998952;28;20039;-89
2023/10/10 10:40:23;;;;;;;9.68;4.50;;;16.90;99.90;;;;;;4999301;28;20058;-89
2023/10/10 10:42:34;;;;;;;7.07;3.80;;;16.90;99.90;;;;;;4998252;28;20025;-88
2023/10/10 10:45:33;;;;;;;9.13;3.60;;;16.90;99.90;;;;;;4993223;28;20030;-90
2023/10/10 10:48:04;;;;;;;8.07;4.80;;;16.90;99.90;;;;;;4992194;28;20034;-91
2023/10/10 10:50:42;;;;;;;8.43;4.03;;;16.90;99.90;;;;;;4991379;28;20467;-92
2023/10/10 10:53:30;;;;;;;9.63;3.72;;;17.00;99.90;;;;;;4993034;28;20050;-92
2023/10/10 11:01:24;;;;;;;14.77;4.80;;;16.90;99.90;;;;;;4996375;28;20052;-92
2023/10/10 11:03:53;;;;;;;10.35;4.97;;;16.90;99.90;;;;;;4993013;28;20470;-94
2023/10/10 11:06:24;;;;;;;4.85;3.35;;;16.80;99.90;;;;;;4995974;28;20045;-92
2023/10/10 11:16:45;;;;;;;7.72;3.50;;;16.80;99.90;;;;;;4994950;28;20049;-92
2023/10/10 11:21:48;;;;;;;9.57;5.40;;;16.90;99.90;;;;;;4998631;28;20803;-92
2023/10/10 11:24:25;;;;;;;8.35;4.00;;;16.90;99.90;;;;;;4997765;28;20070;-90
2023/10/10 11:27:07;;;;;;;10.88;4.47;;;16.90;99.90;;;;;;4997073;28;20125;-89
2023/10/10 11:29:45;;;;;;;7.25;4.20;;;17.00;99.90;;;;;;5019569;28;20041;-89
2023/10/10 11:32:24;;;;;;;6.07;3.58;;;17.00;99.90;;;;;;5000526;28;20126;-89
2023/10/10 11:34:56;;;;;;;14.68;4.65;;;17.00;99.90;;;;;;5000647;28;20471;-90
2023/10/10 11:37:30;;;;;;;10.63;3.58;;;17.10;99.90;;;;;;4997334;28;20149;-90
2023/10/10 11:40:20;;;;;;;9.13;4.10;;;17.10;99.90;;;;;;4996824;28;20034;-92
2023/10/10 11:42:47;;;;;;;5.97;3.38;;;17.10;99.90;;;;;;4999346;28;21439;-94
2023/10/10 11:45:25;;;;;;;4.32;3.22;;;17.20;99.90;;;;;;4999374;28;20026;-92
2023/10/10 11:47:51;;;;;;;10.35;4.20;;;17.20;99.90;;;;;;4999997;28;20091;-93
2023/10/10 11:50:19;;;;;;;7.53;4.43;;;17.30;99.90;;;;;;4999057;28;20130;-93
2023/10/10 11:52:52;;;;;;;8.68;3.72;;;17.40;99.90;;;;;;4994932;28;20046;-92
2023/10/10 11:55:20;;;;;;;9.45;4.35;;;17.40;99.90;;;;;;4992260;28;20022;-92
2023/10/10 11:57:49;;;;;;;11.38;5.18;;;17.50;99.90;;;;;;4995702;28;20026;-91
2023/10/10 12:00:42;;;;;;;9.25;4.43;;;17.50;99.90;;;;;;4995875;28;20030;-89
2023/10/10 12:03:32;;;;;;;9.80;4.57;;;17.60;99.90;;;;;;4993826;28;21442;-91
2023/10/10 12:05:59;;;;;;;14.90;4.68;;;17.60;99.90;;;;;;4997571;28;20033;-95
2023/10/10 12:08:25;;;;;;;9.65;4.65;;;17.70;99.90;;;;;;5000701;28;20401;-92
2023/10/10 12:10:53;;;;;;;5.57;3.63;;;17.70;99.90;;;;;;4995530;28;20041;-91
2023/10/10 12:13:44;;;;;;;5.75;3.47;;;17.70;99.90;;;;;;4995830;28;20401;-89
2023/10/10 12:16:07;;;;;;;6.00;3.58;;;17.80;99.90;;;;;;4989342;28;20076;-89
2023/10/10 12:18:44;;;;;;;8.73;4.15;;;17.80;99.90;;;;;;4995555;28;20038;-94
2023/10/10 12:21:20;;;;;;;15.48;5.47;;;17.80;99.90;;;;;;4995972;28;20089;-90
2023/10/10 12:23:47;;;;;;;13.30;4.72;;;17.90;99.90;;;;;;4995026;28;20034;-91
2023/10/10 12:26:14;;;;;;;10.75;3.88;;;18.00;99.90;;;;;;4990694;28;20186;-93
2023/10/10 12:28:40;;;;;;;9.05;4.05;;;18.00;99.90;;;;;;4995894;28;20030;-92
2023/10/10 12:31:08;;;;;;;11.30;4.82;;;18.00;99.90;;;;;;4996885;28;20021;-91
2023/10/10 12:33:36;;;;;;;15.52;6.05;;;18.00;99.90;;;;;;5003148;28;20060;-93
2023/10/10 12:36:09;;;;;;;5.00;3.63;;;18.00;99.90;;;;;;5003511;28;20030;-91
2023/10/10 12:38:34;;;;;;;8.25;5.25;;;18.00;99.90;;;;;;4998469;28;20022;-92
2023/10/10 12:41:00;;;;;;;7.60;4.57;;;18.10;99.90;;;;;;4993031;28;20061;-92
2023/10/10 12:43:26;;;;;;;7.90;4.35;;;18.10;99.90;;;;;;4999014;28;20034;-90
2023/10/10 12:45:54;;;;;;;9.82;4.75;;;18.20;99.90;;;;;;4999027;28;20031;-91
2023/10/10 12:48:23;;;;;;;15.77;5.55;;;18.20;99.90;;;;;;5007727;28;20260;-91
2023/10/10 12:50:51;;;;;;;6.50;4.18;;;18.30;99.90;;;;;;4999435;28;20054;-92
2023/10/10 12:53:19;;;;;;;9.85;4.88;;;18.50;99.90;;;;;;5014738;28;20107;-91
2023/10/10 12:56:03;;;;;;;5.18;4.07;;;18.50;99.90;;;;;;5002792;28;20114;-91
2023/10/10 12:58:30;;;;;;;9.18;3.63;;;18.60;99.90;;;;;;5000835;28;20266;-91
2023/10/10 13:00:57;;;;;;;9.95;3.95;;;18.60;99.90;;;;;;4991523;28;20058;-92
2023/10/10 13:03:27;;;;;;;13.43;4.30;;;18.50;99.90;;;;;;5000835;28;20029;-89
2023/10/10 13:05:59;;;;;;;7.65;3.90;;;18.50;99.90;;;;;;4995979;28;20036;-90
2023/10/10 13:08:38;;;;;;;17.10;5.55;;;18.60;99.90;;;;;;4998522;28;20074;-92
2023/10/10 13:11:12;;;;;;;8.05;4.10;;;18.50;99.90;;;;;;4999744;28;20125;-89
2023/10/10 13:13:45;;;;;;;8.60;4.55;;;18.60;99.90;;;;;;5018380;28;20467;-93
2023/10/10 13:19:11;;;;;;;10.13;4.85;;;18.60;99.90;;;;;;5007460;28;20179;-90
2023/10/10 13:21:40;;;;;;;9.60;4.10;;;18.50;99.90;;;;;;5003925;28;20022;-92
2023/10/10 13:24:10;;;;;;;41.90;7.82;;;18.60;99.90;;;;;;4996682;28;20038;-90
2023/10/10 13:26:49;;;;;;;24.75;6.88;;;18.70;99.90;;;;;;4986009;28;20379;-90
2023/10/10 13:29:16;;;;;;;9.63;5.10;;;18.70;99.90;;;;;;4986512;28;20026;-90
2023/10/10 13:31:44;;;;;;;10.93;4.70;;;18.70;99.90;;;;;;4984321;28;20405;-90
2023/10/10 13:34:11;;;;;;;14.98;5.78;;;18.60;99.90;;;;;;4989055;28;20031;-90
2023/10/10 13:36:36;;;;;;;10.10;4.75;;;18.70;99.90;;;;;;4999364;28;20100;-90
2023/10/10 13:39:07;;;;;;;12.98;5.18;;;18.60;99.90;;;;;;5001529;28;20074;-89
2023/10/10 13:41:36;;;;;;;10.48;5.03;;;18.70;99.90;;;;;;4995911;28;20322;-90
2023/10/10 13:44:03;;;;;;;9.52;4.15;;;18.60;99.90;;;;;;4984603;28;20121;-90
2023/10/10 13:46:34;;;;;;;8.98;4.38;;;18.60;99.90;;;;;;4995140;28;20057;-90
2023/10/10 13:49:03;;;;;;;8.70;4.20;;;18.60;99.90;;;;;;4998012;28;20034;-90
2023/10/10 13:51:29;;;;;;;7.22;4.10;;;18.50;99.90;;;;;;4993388;28;20348;-90
2023/10/10 13:53:58;;;;;;;8.00;4.05;;;18.50;99.90;;;;;;5002076;28;20040;-89
2023/10/10 13:56:23;;;;;;;10.90;4.53;;;18.50;99.90;;;;;;4999333;28;20113;-90
2023/10/10 13:58:52;;;;;;;8.13;5.30;;;18.50;99.90;;;;;;4992177;28;20113;-90
2023/10/10 14:03:57;;;;;;;11.10;5.47;;;18.60;99.90;;;;;;4991529;28;20034;-89
2023/10/10 14:06:26;;;;;;;17.95;6.13;;;18.70;99.90;;;;;;4997856;28;20018;-90
2023/10/10 14:08:52;;;;;;;10.50;4.60;;;18.70;99.90;;;;;;4999098;28;20034;-90
2023/10/10 14:11:22;;;;;;;12.02;5.65;;;18.80;99.90;;;;;;4986513;28;20027;-90
2023/10/10 14:13:48;;;;;;;21.15;12.95;;;18.80;99.90;;;;;;4997265;28;20037;-90
2023/10/10 14:16:15;;;;;;;38.88;24.73;;;18.80;99.90;;;;;;4991746;28;20092;-90
2023/10/10 14:18:47;;;;;;;24.58;16.08;;;18.80;99.90;;;;;;4995015;28;20030;-90
2023/10/10 14:21:14;;;;;;;15.30;9.88;;;18.80;99.90;;;;;;4997943;28;20026;-90
2023/10/10 14:23:40;;;;;;;14.20;7.28;;;18.80;99.90;;;;;;4990052;28;20026;-89
2023/10/10 14:26:13;;;;;;;12.70;6.07;;;18.80;99.90;;;;;;4990986;28;20029;-89
2023/10/10 14:28:50;;;;;;;9.73;4.65;;;18.80;99.90;;;;;;4997687;28;20105;-90
2023/10/10 14:31:21;;;;;;;8.85;4.80;;;18.80;99.90;;;;;;4996614;28;20126;-89
2023/10/10 14:33:51;;;;;;;17.58;6.32;;;18.90;99.90;;;;;;4994244;28;20069;-91
2023/10/10 14:36:17;;;;;;;23.05;8.52;;;18.90;99.90;;;;;;4988388;28;20034;-92
2023/10/10 14:38:48;;;;;;;23.73;7.50;;;19.00;99.90;;;;;;4993771;28;20030;-89
2023/10/10 14:41:19;;;;;;;14.40;6.53;;;19.10;99.90;;;;;;4997441;28;20124;-89
2023/10/10 14:43:50;;;;;;;14.27;7.78;;;19.20;99.90;;;;;;4992800;28;20038;-90
2023/10/10 14:46:32;;;;;;;21.52;10.10;;;19.20;99.90;;;;;;4993178;28;20025;-94
2023/10/10 14:49:06;;;;;;;11.45;6.57;;;19.30;99.90;;;;;;4991052;28;20409;-90
2023/10/10 14:51:36;;;;;;;21.08;6.82;;;19.40;99.90;;;;;;4994914;28;20034;-90
2023/10/10 14:54:07;;;;;;;20.40;6.43;;;19.50;99.90;;;;;;5001911;28;20053;-90
2023/10/10 14:56:45;;;;;;;12.48;5.90;;;19.60;99.90;;;;;;4997790;28;20026;-89
2023/10/10 14:59:17;;;;;;;13.32;7.85;;;19.50;99.90;;;;;;4995640;28;20041;-90
2023/10/10 15:01:50;;;;;;;13.38;7.60;;;19.40;99.90;;;;;;4996443;28;20052;-88
2023/10/10 15:04:17;;;;;;;15.18;7.40;;;19.30;99.90;;;;;;4993968;28;20030;-90
2023/10/10 15:06:48;;;;;;;14.50;8.38;;;19.20;99.90;;;;;;4998532;28;20041;-89
2023/10/10 15:09:20;;;;;;;14.30;7.57;;;19.20;99.90;;;;;;4993292;28;20064;-86
2023/10/10 15:11:47;;;;;;;10.02;6.93;;;19.20;99.90;;;;;;4991536;28;20515;-90
2023/10/10 15:14:18;;;;;;;16.40;7.65;;;19.10;99.90;;;;;;4995698;28;20391;-88
2023/10/10 15:16:47;;;;;;;21.00;8.18;;;19.00;99.90;;;;;;4994861;28;20050;-89
2023/10/10 15:19:12;;;;;;;12.35;6.57;;;19.00;99.90;;;;;;4982825;28;20382;-89
2023/10/10 15:21:39;;;;;;;15.13;8.77;;;18.90;99.90;;;;;;4993433;28;20121;-90
2023/10/10 15:24:12;;;;;;;21.85;7.38;;;18.80;99.90;;;;;;4993091;28;20033;-88
2023/10/10 15:26:40;;;;;;;18.58;9.13;;;18.80;99.90;;;;;;4993598;28;20030;-88
2023/10/10 15:29:10;;;;;;;23.45;9.63;;;18.70;99.90;;;;;;4996631;28;20026;-90
2023/10/10 15:31:36;;;;;;;25.50;9.20;;;18.70;99.90;;;;;;4999401;28;20482;-90
2023/10/10 15:34:06;;;;;;;15.80;8.63;;;18.60;99.90;;;;;;4994762;28;20079;-89
2023/10/10 15:36:35;;;;;;;20.85;8.85;;;18.70;99.90;;;;;;4987632;28;20148;-88
2023/10/10 15:39:04;;;;;;;12.82;7.47;;;18.60;99.90;;;;;;4996424;28;20024;-89
2023/10/10 15:41:31;;;;;;;16.27;7.68;;;18.50;99.90;;;;;;4988717;28;20038;-90
2023/10/10 15:44:02;;;;;;;15.48;8.65;;;18.50;99.90;;;;;;4997448;28;20038;-90